sensor_id;sensor_type;location;lat;lon;timestamp;pressure;altitude;pressure_sealevel;temperature;humidity
76847;BME280;65813;49.546;8.644;2022-12-24T05:15:43;100340.09;;;9.88;81.95
76847;BME280;65813;49.546;8.644;2022-12-24T05:19:44;100350.09;;;9.84;82.14
76847;BME280;65813;49.546;8.644;2022-12-24T05:23:45;100352.34;;;9.78;82.59
76847;BME280;65813;49.546;8.644;2022-12-24T05:28:04;100349.03;;;9.74;82.82
76847;BME280;65813;49.546;8.644;2022-12-24T05:32:04;100351.50;;;9.64;83.34
76847;BME280;65813;49.546;8.644;2022-12-24T05:36:05;100338.53;;;9.60;83.91
76847;BME280;65813;49.546;8.644;2022-12-24T05:40:06;100345.44;;;9.62;84.53
76847;BME280;65813;49.546;8.644;2022-12-24T05:44:06;100344.16;;;9.55;84.81
76847;BME280;65813;49.546;8.644;2022-12-24T05:48:07;100374.03;;;9.59;84.96
76847;BME280;65813;49.546;8.644;2022-12-24T05:52:07;100357.03;;;9.61;85.42
76847;BME280;65813;49.546;8.644;2022-12-24T05:56:10;100367.47;;;9.64;85.88
76847;BME280;65813;49.546;8.644;2022-12-24T06:00:11;100366.06;;;9.59;85.97
76847;BME280;65813;49.546;8.644;2022-12-24T06:04:12;100373.31;;;9.57;86.34
76847;BME280;65813;49.546;8.644;2022-12-24T06:08:12;100364.78;;;9.52;86.07
76847;BME280;65813;49.546;8.644;2022-12-24T06:12:12;100370.09;;;9.52;86.65
76847;BME280;65813;49.546;8.644;2022-12-24T06:16:15;100370.88;;;9.54;86.16
76847;BME280;65813;49.546;8.644;2022-12-24T06:20:16;100382.66;;;9.50;86.50
76847;BME280;65813;49.546;8.644;2022-12-24T06:24:17;100381.19;;;9.46;86.17
76847;BME280;65813;49.546;8.644;2022-12-24T06:28:17;100393.72;;;9.44;86.55
76847;BME280;65813;49.546;8.644;2022-12-24T06:32:19;100398.72;;;9.48;86.20
76847;BME280;65813;49.546;8.644;2022-12-24T06:36:23;100405.44;;;9.54;86.20
76847;BME280;65813;49.546;8.644;2022-12-24T06:40:25;100403.00;;;9.51;86.50
76847;BME280;65813;49.546;8.644;2022-12-24T06:44:25;100404.03;;;9.48;86.28
76847;BME280;65813;49.546;8.644;2022-12-24T06:48:26;100413.41;;;9.67;86.40
76847;BME280;65813;49.546;8.644;2022-12-24T06:52:26;100414.91;;;9.58;85.90
76847;BME280;65813;49.546;8.644;2022-12-24T06:56:26;100411.38;;;9.70;86.09
76847;BME280;65813;49.546;8.644;2022-12-24T07:00:27;100424.47;;;9.73;85.46
76847;BME280;65813;49.546;8.644;2022-12-24T07:04:27;100433.84;;;9.66;85.74
76847;BME280;65813;49.546;8.644;2022-12-24T07:08:27;100435.53;;;9.67;85.37
76847;BME280;65813;49.546;8.644;2022-12-24T07:12:28;100436.69;;;9.76;85.21
76847;BME280;65813;49.546;8.644;2022-12-24T07:16:29;100443.44;;;9.69;85.22
76847;BME280;65813;49.546;8.644;2022-12-24T07:20:29;100444.25;;;9.69;85.18
76847;BME280;65813;49.546;8.644;2022-12-24T07:24:29;100438.94;;;9.69;84.96
76847;BME280;65813;49.546;8.644;2022-12-24T07:28:30;100449.19;;;9.75;85.01
76847;BME280;65813;49.546;8.644;2022-12-24T07:32:30;100448.28;;;9.62;85.18
76847;BME280;65813;49.546;8.644;2022-12-24T07:36:31;100458.75;;;9.65;85.12
76847;BME280;65813;49.546;8.644;2022-12-24T07:40:33;100468.75;;;9.74;84.73
76847;BME280;65813;49.546;8.644;2022-12-24T07:44:34;100462.88;;;9.69;84.72
76847;BME280;65813;49.546;8.644;2022-12-24T07:48:34;100466.91;;;9.62;85.08
76847;BME280;65813;49.546;8.644;2022-12-24T07:52:34;100465.00;;;9.64;85.20
76847;BME280;65813;49.546;8.644;2022-12-24T07:56:35;100468.31;;;9.68;85.11
76847;BME280;65813;49.546;8.644;2022-12-24T08:00:36;100470.34;;;9.77;85.13
76847;BME280;65813;49.546;8.644;2022-12-24T08:04:36;100476.50;;;9.77;84.55
76847;BME280;65813;49.546;8.644;2022-12-24T08:08:37;100462.16;;;9.67;84.08
76847;BME280;65813;49.546;8.644;2022-12-24T08:12:37;100483.84;;;9.86;83.99
76847;BME280;65813;49.546;8.644;2022-12-24T08:16:38;100499.00;;;9.86;84.10
76847;BME280;65813;49.546;8.644;2022-12-24T08:20:39;100491.09;;;9.84;nan
76847;BME280;65813;49.546;8.644;2022-12-24T08:24:39;100496.84;;;9.91;83.38
76847;BME280;65813;49.546;8.644;2022-12-24T08:28:40;100499.09;;;9.84;83.58
76847;BME280;65813;49.546;8.644;2022-12-24T08:32:40;100504.19;;;9.87;83.29
76847;BME280;65813;49.546;8.644;2022-12-24T08:36:41;100493.66;;;9.86;83.41
76847;BME280;65813;49.546;8.644;2022-12-24T08:40:42;100501.53;;;9.87;83.35
76847;BME280;65813;49.546;8.644;2022-12-24T08:44:43;100496.97;;;9.89;83.57
76847;BME280;65813;49.546;8.644;2022-12-24T08:48:43;100497.72;;;9.91;83.22
76847;BME280;65813;49.546;8.644;2022-12-24T08:52:43;100514.75;;;10.01;83.37
76847;BME280;65813;49.546;8.644;2022-12-24T08:56:44;100507.50;;;9.91;83.33
76847;BME280;65813;49.546;8.644;2022-12-24T09:00:44;100513.38;;;9.96;83.44
76847;BME280;65813;49.546;8.644;2022-12-24T09:04:45;100507.09;;;10.09;82.50
76847;BME280;65813;49.546;8.644;2022-12-24T09:08:45;100513.81;;;10.15;82.09
76847;BME280;65813;49.546;8.644;2022-12-24T09:12:46;100538.00;;;10.37;81.19
76847;BME280;65813;49.546;8.644;2022-12-24T09:16:46;100533.59;;;10.49;81.05
76847;BME280;65813;49.546;8.644;2022-12-24T09:20:47;100548.81;;;10.59;80.33
76847;BME280;65813;49.546;8.644;2022-12-24T09:24:47;100544.13;;;10.63;80.33
76847;BME280;65813;49.546;8.644;2022-12-24T09:28:48;100549.00;;;10.69;79.41
76847;BME280;65813;49.546;8.644;2022-12-24T09:32:50;100553.53;;;10.69;80.21
76847;BME280;65813;49.546;8.644;2022-12-24T09:36:50;100555.75;;;10.62;80.45
76847;BME280;65813;49.546;8.644;2022-12-24T09:40:54;100563.94;;;10.59;80.49
76847;BME280;65813;49.546;8.644;2022-12-24T09:45:10;100592.00;;;10.64;80.00
76847;BME280;65813;49.546;8.644;2022-12-24T09:49:17;100593.88;;;10.62;80.55
76847;BME280;65813;49.546;8.644;2022-12-24T09:53:23;100605.19;;;10.53;81.24
76847;BME280;65813;49.546;8.644;2022-12-24T09:57:30;100603.50;;;10.65;80.79
76847;BME280;65813;49.546;8.644;2022-12-24T10:01:33;100604.56;;;10.75;80.76
76847;BME280;65813;49.546;8.644;2022-12-24T10:22:42;100613.56;;;10.98;79.22
76847;BME280;65813;49.546;8.644;2022-12-24T10:26:55;100618.91;;;10.98;79.73
76847;BME280;65813;49.546;8.644;2022-12-24T10:30:59;100603.75;;;10.98;79.69
76847;BME280;65813;49.546;8.644;2022-12-24T10:39:20;100609.41;;;11.06;79.12
76847;BME280;65813;49.546;8.644;2022-12-24T10:43:24;100595.00;;;10.96;79.36
76847;BME280;65813;49.546;8.644;2022-12-24T10:47:24;100587.00;;;10.96;79.03
76847;BME280;65813;49.546;8.644;2022-12-24T10:55:48;100600.78;;;11.03;78.38
76847;BME280;65813;49.546;8.644;2022-12-24T10:59:51;100614.56;;;11.21;77.93
76847;BME280;65813;49.546;8.644;2022-12-24T11:04:00;100619.88;;;11.33;77.32
76847;BME280;65813;49.546;8.644;2022-12-24T11:08:03;100611.75;;;11.35;77.99
76847;BME280;65813;49.546;8.644;2022-12-24T11:12:06;100607.69;;;11.42;77.58
76847;BME280;65813;49.546;8.644;2022-12-24T11:16:28;100602.13;;;11.45;76.89
76847;BME280;65813;49.546;8.644;2022-12-24T11:20:32;100598.72;;;11.43;76.96
76847;BME280;65813;49.546;8.644;2022-12-24T11:24:34;100611.53;;;11.38;77.36
76847;BME280;65813;49.546;8.644;2022-12-24T11:28:36;100616.38;;;11.33;77.80
76847;BME280;65813;49.546;8.644;2022-12-24T11:32:36;100611.75;;;11.35;77.81
76847;BME280;65813;49.546;8.644;2022-12-24T11:36:36;100608.38;;;11.33;77.54
76847;BME280;65813;49.546;8.644;2022-12-24T11:44:47;100603.84;;;11.46;77.96
76847;BME280;65813;49.546;8.644;2022-12-24T11:49:04;100613.88;;;11.66;77.21
76847;BME280;65813;49.546;8.644;2022-12-24T11:53:19;100614.88;;;11.65;76.53
76847;BME280;65813;49.546;8.644;2022-12-24T11:57:27;100604.16;;;11.78;77.62
76847;BME280;65813;49.546;8.644;2022-12-24T12:01:36;100603.13;;;11.55;76.89
76847;BME280;65813;49.546;8.644;2022-12-24T12:05:39;100598.44;;;11.35;78.19
76847;BME280;65813;49.546;8.644;2022-12-24T12:09:48;100591.50;;;11.32;76.15
76847;BME280;65813;49.546;8.644;2022-12-24T12:13:49;100606.44;;;11.35;75.41
76847;BME280;65813;49.546;8.644;2022-12-24T12:18:14;100610.81;;;11.36;76.51
76847;BME280;65813;49.546;8.644;2022-12-24T12:27:19;100614.19;;;11.38;75.57
76847;BME280;65813;49.546;8.644;2022-12-24T12:31:35;100613.94;;;11.30;76.35
76847;BME280;65813;49.546;8.644;2022-12-24T12:35:39;100618.81;;;11.36;75.65
76847;BME280;65813;49.546;8.644;2022-12-24T12:39:41;100613.28;;;11.26;76.72
76847;BME280;65813;49.546;8.644;2022-12-24T12:49:30;100629.47;;;11.36;75.23
76847;BME280;65813;49.546;8.644;2022-12-24T12:54:16;100619.13;;;11.31;76.30
76847;BME280;65813;49.546;8.644;2022-12-24T12:58:35;100619.88;;;11.33;76.14
76847;BME280;65813;49.546;8.644;2022-12-24T13:11:13;100620.53;;;11.37;76.71
76847;BME280;65813;49.546;8.644;2022-12-24T13:24:17;100626.34;;;11.42;76.29
76847;BME280;65813;49.546;8.644;2022-12-24T13:36:23;100633.53;;;11.65;76.28
76847;BME280;65813;49.546;8.644;2022-12-24T13:40:25;100633.53;;;11.65;76.43
76847;BME280;65813;49.546;8.644;2022-12-24T13:44:27;100642.13;;;11.45;78.02
76847;BME280;65813;49.546;8.644;2022-12-24T13:48:33;100637.03;;;11.65;77.33
76847;BME280;65813;49.546;8.644;2022-12-24T13:52:33;100641.19;;;11.70;76.94
76847;BME280;65813;49.546;8.644;2022-12-24T13:56:35;100634.56;;;11.51;77.43
76847;BME280;65813;49.546;8.644;2022-12-24T14:00:39;100638.75;;;11.43;78.44
76847;BME280;65813;49.546;8.644;2022-12-24T14:04:41;100648.94;;;11.49;78.13
76847;BME280;65813;49.546;8.644;2022-12-24T14:08:44;100632.69;;;11.41;78.00
76847;BME280;65813;49.546;8.644;2022-12-24T14:12:47;100639.06;;;11.38;79.49
76847;BME280;65813;49.546;8.644;2022-12-24T14:16:49;100644.13;;;11.30;79.91
76847;BME280;65813;49.546;8.644;2022-12-24T14:20:53;100657.63;;;11.40;81.12
76847;BME280;65813;49.546;8.644;2022-12-24T14:25:08;100655.00;;;11.27;82.58
76847;BME280;65813;49.546;8.644;2022-12-24T14:29:21;100650.38;;;10.80;83.70
76847;BME280;65813;49.546;8.644;2022-12-24T14:33:31;100659.22;;;10.68;85.49
76847;BME280;65813;49.546;8.644;2022-12-24T14:37:31;100650.19;;;10.58;85.85
76847;BME280;65813;49.546;8.644;2022-12-24T14:41:45;100644.94;;;10.44;86.60
76847;BME280;65813;49.546;8.644;2022-12-24T14:46:11;100654.31;;;10.37;86.49
76847;BME280;65813;49.546;8.644;2022-12-24T14:54:39;100665.38;;;10.31;86.92
76847;BME280;65813;49.546;8.644;2022-12-24T14:58:42;100671.75;;;10.28;86.68
76847;BME280;65813;49.546;8.644;2022-12-24T15:02:49;100665.78;;;10.25;87.19
76847;BME280;65813;49.546;8.644;2022-12-24T15:06:54;100670.34;;;10.23;86.93
76847;BME280;65813;49.546;8.644;2022-12-24T15:11:00;100667.13;;;10.18;86.97
76847;BME280;65813;49.546;8.644;2022-12-24T15:15:02;100676.38;;;10.12;87.23
76847;BME280;65813;49.546;8.644;2022-12-24T15:19:06;100667.38;;;10.00;87.47
76847;BME280;65813;49.546;8.644;2022-12-24T15:23:17;100682.09;;;10.06;87.10
76847;BME280;65813;49.546;8.644;2022-12-24T15:27:22;100691.13;;;10.03;87.23
76847;BME280;65813;49.546;8.644;2022-12-24T15:31:24;100703.69;;;10.01;87.67
76847;BME280;65813;49.546;8.644;2022-12-24T15:35:46;100706.28;;;10.03;87.57
76847;BME280;65813;49.546;8.644;2022-12-24T15:39:57;100707.31;;;10.00;87.53
76847;BME280;65813;49.546;8.644;2022-12-24T15:44:02;100715.19;;;10.02;87.20
76847;BME280;65813;49.546;8.644;2022-12-24T15:48:09;100722.63;;;9.97;87.37
76847;BME280;65813;49.546;8.644;2022-12-24T15:52:13;100717.81;;;9.89;87.92
76847;BME280;65813;49.546;8.644;2022-12-24T15:56:34;100720.06;;;9.95;87.80
76847;BME280;65813;49.546;8.644;2022-12-24T16:00:35;100719.22;;;9.95;87.36
76847;BME280;65813;49.546;8.644;2022-12-24T16:04:35;100712.09;;;9.95;87.12
76847;BME280;65813;49.546;8.644;2022-12-24T16:08:40;100718.19;;;9.83;88.28
76847;BME280;65813;49.546;8.644;2022-12-24T16:12:41;100723.78;;;9.93;87.37
76847;BME280;65813;49.546;8.644;2022-12-24T16:16:45;100730.56;;;9.84;88.38
76847;BME280;65813;49.546;8.644;2022-12-24T16:20:48;100729.56;;;9.99;86.86
76847;BME280;65813;49.546;8.644;2022-12-24T16:24:49;100733.25;;;9.97;86.60
76847;BME280;65813;49.546;8.644;2022-12-24T16:28:54;100731.03;;;10.03;86.39
76847;BME280;65813;49.546;8.644;2022-12-24T16:32:54;100727.28;;;9.93;86.61
76847;BME280;65813;49.546;8.644;2022-12-24T16:36:55;100724.63;;;9.93;86.61
76847;BME280;65813;49.546;8.644;2022-12-24T16:40:55;100719.41;;;9.92;86.22
76847;BME280;65813;49.546;8.644;2022-12-24T16:44:56;100700.66;;;9.93;85.88
76847;BME280;65813;49.546;8.644;2022-12-24T16:48:56;100700.13;;;9.88;86.15
76847;BME280;65813;49.546;8.644;2022-12-24T16:52:56;100717.22;;;9.98;85.71
76847;BME280;65813;49.546;8.644;2022-12-24T16:56:57;100715.97;;;9.90;85.73
76847;BME280;65813;49.546;8.644;2022-12-24T17:00:57;100728.53;;;9.88;85.70
76847;BME280;65813;49.546;8.644;2022-12-24T17:04:58;100723.59;;;9.96;85.62
76847;BME280;65813;49.546;8.644;2022-12-24T17:08:59;100738.91;;;9.92;85.73
76847;BME280;65813;49.546;8.644;2022-12-24T17:12:59;100737.19;;;9.91;85.29
76847;BME280;65813;49.546;8.644;2022-12-24T17:16:59;100753.53;;;9.99;85.11
76847;BME280;65813;49.546;8.644;2022-12-24T17:21:01;100734.59;;;9.90;85.42
76847;BME280;65813;49.546;8.644;2022-12-24T17:25:03;100740.91;;;9.89;85.94
76847;BME280;65813;49.546;8.644;2022-12-24T17:29:03;100747.91;;;9.90;85.96
76847;BME280;65813;49.546;8.644;2022-12-24T17:33:04;100756.88;;;9.89;85.55
76847;BME280;65813;49.546;8.644;2022-12-24T17:37:04;100749.75;;;9.89;85.53
76847;BME280;65813;49.546;8.644;2022-12-24T17:41:08;100755.91;;;9.90;85.75
76847;BME280;65813;49.546;8.644;2022-12-24T17:45:09;100757.63;;;9.91;85.81
76847;BME280;65813;49.546;8.644;2022-12-24T17:49:09;100759.13;;;9.95;85.55
76847;BME280;65813;49.546;8.644;2022-12-24T17:53:10;100763.38;;;9.97;85.05
76847;BME280;65813;49.546;8.644;2022-12-24T17:57:10;100762.25;;;10.01;85.18
76847;BME280;65813;49.546;8.644;2022-12-24T18:01:13;100754.81;;;10.06;84.70
76847;BME280;65813;49.546;8.644;2022-12-24T18:05:14;100741.91;;;10.00;84.69
76847;BME280;65813;49.546;8.644;2022-12-24T18:09:14;100747.75;;;9.93;85.31
76847;BME280;65813;49.546;8.644;2022-12-24T18:13:14;100742.09;;;9.97;85.01
76847;BME280;65813;49.546;8.644;2022-12-24T18:17:15;100747.22;;;10.00;85.00
76847;BME280;65813;49.546;8.644;2022-12-24T18:21:16;100748.31;;;10.10;84.43
76847;BME280;65813;49.546;8.644;2022-12-24T18:25:18;100750.44;;;10.05;84.74
76847;BME280;65813;49.546;8.644;2022-12-24T18:29:19;100755.53;;;9.96;84.93
76847;BME280;65813;49.546;8.644;2022-12-24T18:33:19;100750.75;;;10.01;84.57
76847;BME280;65813;49.546;8.644;2022-12-24T18:37:19;100751.88;;;9.97;84.55
76847;BME280;65813;49.546;8.644;2022-12-24T18:41:22;100737.44;;;10.01;84.63
76847;BME280;65813;49.546;8.644;2022-12-24T18:45:23;100749.50;;;10.06;84.57
76847;BME280;65813;49.546;8.644;2022-12-24T18:49:23;100746.88;;;9.92;84.78
76847;BME280;65813;49.546;8.644;2022-12-24T18:53:24;100749.53;;;9.92;85.15
76847;BME280;65813;49.546;8.644;2022-12-24T18:57:24;100745.16;;;9.91;85.54
76847;BME280;65813;49.546;8.644;2022-12-24T19:01:27;100743.56;;;9.89;85.57
76847;BME280;65813;49.546;8.644;2022-12-24T19:05:27;100750.69;;;9.88;85.46
76847;BME280;65813;49.546;8.644;2022-12-24T19:09:29;100772.38;;;9.82;85.66
76847;BME280;65813;49.546;8.644;2022-12-24T19:13:30;100768.38;;;9.89;85.54
76847;BME280;65813;49.546;8.644;2022-12-24T19:17:30;100773.53;;;9.78;85.62
76847;BME280;65813;49.546;8.644;2022-12-24T19:21:31;100774.19;;;9.82;85.82
76847;BME280;65813;49.546;8.644;2022-12-24T19:25:32;100769.22;;;9.76;85.52
76847;BME280;65813;49.546;8.644;2022-12-24T19:29:33;100778.06;;;9.76;85.63
76847;BME280;65813;49.546;8.644;2022-12-24T19:33:38;100789.69;;;9.75;85.90
76847;BME280;65813;49.546;8.644;2022-12-24T19:37:39;100805.44;;;9.78;85.97
76847;BME280;65813;49.546;8.644;2022-12-24T19:41:39;100789.88;;;9.72;85.57
76847;BME280;65813;49.546;8.644;2022-12-24T19:45:40;100787.22;;;9.72;86.06
76847;BME280;65813;49.546;8.644;2022-12-24T19:49:40;100804.84;;;9.87;85.10
76847;BME280;65813;49.546;8.644;2022-12-24T19:53:40;100787.16;;;9.86;84.54
76847;BME280;65813;49.546;8.644;2022-12-24T19:57:41;100789.84;;;9.86;85.12
76847;BME280;65813;49.546;8.644;2022-12-24T20:01:41;100801.44;;;9.85;84.79
76847;BME280;65813;49.546;8.644;2022-12-24T20:05:43;100805.13;;;9.83;85.07
76847;BME280;65813;49.546;8.644;2022-12-24T20:09:43;100812.66;;;9.76;85.31
76847;BME280;65813;49.546;8.644;2022-12-24T20:13:44;100821.22;;;9.81;85.10
76847;BME280;65813;49.546;8.644;2022-12-24T20:17:45;100822.56;;;9.74;85.16
76847;BME280;65813;49.546;8.644;2022-12-24T20:21:51;100819.41;;;9.68;84.93
76847;BME280;65813;49.546;8.644;2022-12-24T20:25:56;100838.78;;;9.70;85.73
76847;BME280;65813;49.546;8.644;2022-12-24T20:29:57;100827.41;;;9.68;85.71
76847;BME280;65813;49.546;8.644;2022-12-24T20:33:59;100829.38;;;9.78;85.35
76847;BME280;65813;49.546;8.644;2022-12-24T20:37:59;100817.97;;;9.76;85.28
76847;BME280;65813;49.546;8.644;2022-12-24T20:41:59;100813.50;;;9.77;84.80
76847;BME280;65813;49.546;8.644;2022-12-24T20:46:00;100813.72;;;9.74;85.66
76847;BME280;65813;49.546;8.644;2022-12-24T20:50:00;100817.44;;;9.71;85.55
76847;BME280;65813;49.546;8.644;2022-12-24T20:54:01;100820.09;;;9.71;85.76
76847;BME280;65813;49.546;8.644;2022-12-24T20:58:01;100806.00;;;9.69;85.57
76847;BME280;65813;49.546;8.644;2022-12-24T21:02:02;100812.84;;;9.73;85.44
76847;BME280;65813;49.546;8.644;2022-12-24T21:06:02;100820.81;;;9.87;84.98
76847;BME280;65813;49.546;8.644;2022-12-24T21:10:05;100810.16;;;9.87;84.99
76847;BME280;65813;49.546;8.644;2022-12-24T21:14:06;100817.41;;;9.85;84.94
76847;BME280;65813;49.546;8.644;2022-12-24T21:18:07;100816.34;;;9.88;84.73
76847;BME280;65813;49.546;8.644;2022-12-24T21:22:10;100817.97;;;9.90;85.16
76847;BME280;65813;49.546;8.644;2022-12-24T21:26:11;100816.63;;;9.97;84.60
76847;BME280;65813;49.546;8.644;2022-12-24T21:30:11;100810.88;;;10.03;84.31
76847;BME280;65813;49.546;8.644;2022-12-24T21:34:11;100811.53;;;10.07;84.34
76847;BME280;65813;49.546;8.644;2022-12-24T21:38:12;100803.69;;;10.05;83.96
76847;BME280;65813;49.546;8.644;2022-12-24T21:42:13;100804.44;;;10.07;84.02
76847;BME280;65813;49.546;8.644;2022-12-24T21:46:16;100802.09;;;10.03;83.96
76847;BME280;65813;49.546;8.644;2022-12-24T21:50:18;100792.78;;;9.96;83.74
76847;BME280;65813;49.546;8.644;2022-12-24T21:54:37;100783.75;;;9.84;84.38
76847;BME280;65813;49.546;8.644;2022-12-24T21:58:37;100815.41;;;9.89;84.29
76847;BME280;65813;49.546;8.644;2022-12-24T22:02:38;100785.69;;;9.82;84.40
76847;BME280;65813;49.546;8.644;2022-12-24T22:06:38;100771.81;;;9.77;84.42
76847;BME280;65813;49.546;8.644;2022-12-24T22:11:02;100769.72;;;9.82;84.33
